createdAt,value
2023-01-04T00:00:16.888Z,11.77
2023-01-04T00:03:05.783Z,13.00
2023-01-04T00:05:34.703Z,10.57
2023-01-04T00:08:02.993Z,13.18
2023-01-04T00:10:31.659Z,12.20
2023-01-04T00:13:00.276Z,14.20
2023-01-04T00:15:29.038Z,12.40
2023-01-04T00:17:57.372Z,12.48
2023-01-04T00:20:25.975Z,11.63
2023-01-04T00:22:54.514Z,12.13
2023-01-04T00:25:23.290Z,11.85
2023-01-04T00:27:53.533Z,11.35
2023-01-04T00:30:23.197Z,13.93
2023-01-04T00:32:51.530Z,31.52
2023-01-04T00:35:46.386Z,61.08
2023-01-04T00:38:14.982Z,40.47
2023-01-04T00:40:43.812Z,28.35
2023-01-04T00:43:12.274Z,25.42
2023-01-04T00:45:40.891Z,24.02
2023-01-04T00:48:10.046Z,19.90
2023-01-04T00:50:38.712Z,15.32
2023-01-04T00:53:07.111Z,15.35
2023-01-04T00:55:35.761Z,16.65
2023-01-04T00:58:04.099Z,20.27
2023-01-04T01:00:32.892Z,17.70
2023-01-04T01:03:01.981Z,19.65
2023-01-04T01:05:31.174Z,41.08
2023-01-04T01:08:19.398Z,30.05
2023-01-04T01:10:48.057Z,26.75
2023-01-04T01:13:16.406Z,21.08
2023-01-04T01:15:45.117Z,18.85
2023-01-04T01:18:13.669Z,16.33
2023-01-04T01:20:44.073Z,16.30
2023-01-04T01:23:16.194Z,14.20
2023-01-04T01:25:50.398Z,15.00
2023-01-04T01:28:18.844Z,13.43
2023-01-04T01:30:47.621Z,12.63
2023-01-04T01:33:15.970Z,12.82
2023-01-04T01:36:10.666Z,12.32
2023-01-04T01:38:39.859Z,12.40
2023-01-04T01:41:09.200Z,10.15
2023-01-04T01:43:48.475Z,11.07
2023-01-04T01:46:19.379Z,11.20
2023-01-04T01:48:48.154Z,10.07
2023-01-04T01:51:17.972Z,11.70
2023-01-04T01:53:47.549Z,10.82
2023-01-04T01:56:18.357Z,11.52
2023-01-04T01:58:48.698Z,12.40
2023-01-04T02:01:17.639Z,13.05
2023-01-04T02:03:46.143Z,11.13
2023-01-04T02:06:19.049Z,11.18
2023-01-04T02:08:47.956Z,11.68
2023-01-04T02:11:26.004Z,12.10
2023-01-04T02:17:36.489Z,10.95
2023-01-04T02:20:17.099Z,10.32
2023-01-04T02:23:04.298Z,10.80
2023-01-04T02:25:51.270Z,10.20
2023-01-04T02:28:23.071Z,11.18
2023-01-04T02:31:02.211Z,12.77
2023-01-04T02:33:37.253Z,14.63
2023-01-04T02:36:08.620Z,11.95
2023-01-04T02:38:43.286Z,14.48
2023-01-04T02:41:21.021Z,13.50
2023-01-04T02:44:11.411Z,12.88
2023-01-04T02:46:44.864Z,13.70
2023-01-04T02:49:32.132Z,14.20
2023-01-04T02:52:00.862Z,12.00
2023-01-04T02:54:32.642Z,12.27
2023-01-04T02:57:08.866Z,12.63
2023-01-04T02:59:43.803Z,11.93
2023-01-04T03:02:30.704Z,12.52
2023-01-04T03:05:25.131Z,13.15
2023-01-04T03:07:53.449Z,17.33
2023-01-04T03:10:22.194Z,18.25
2023-01-04T03:12:53.974Z,15.50
2023-01-04T03:15:27.660Z,15.55
2023-01-04T03:18:08.256Z,16.00
2023-01-04T03:20:37.133Z,15.63
2023-01-04T03:23:27.683Z,14.90
2023-01-04T03:26:29.866Z,13.75
2023-01-04T03:29:18.784Z,13.10
2023-01-04T03:32:21.407Z,12.13
2023-01-04T03:35:08.572Z,13.35
2023-01-04T03:37:43.476Z,13.13
2023-01-04T03:50:39.494Z,19.20
2023-01-04T03:53:08.926Z,19.35
2023-01-04T03:55:38.193Z,16.25
2023-01-04T03:58:06.856Z,19.45
2023-01-04T04:00:35.358Z,18.52
2023-01-04T04:03:09.279Z,17.02
2023-01-04T04:05:58.365Z,15.52
2023-01-04T04:08:28.082Z,17.27
2023-01-04T04:11:23.698Z,14.95
2023-01-04T04:13:52.441Z,14.57
2023-01-04T04:16:20.935Z,14.45
2023-01-04T04:18:49.593Z,14.68
2023-01-04T04:21:17.937Z,13.63
2023-01-04T04:23:46.778Z,14.25
2023-01-04T04:26:15.281Z,16.63
2023-01-04T04:28:44.444Z,18.63
2023-01-04T04:31:13.153Z,20.08
2023-01-04T04:43:58.062Z,17.58
2023-01-04T04:54:36.971Z,22.52
2023-01-04T04:57:05.819Z,20.58
2023-01-04T04:59:36.682Z,23.80
2023-01-04T05:02:05.801Z,24.85
2023-01-04T05:04:34.714Z,22.92
2023-01-04T05:07:07.530Z,19.77
2023-01-04T05:09:39.422Z,18.63
2023-01-04T05:12:26.534Z,18.65
2023-01-04T05:14:55.142Z,20.10
2023-01-04T05:17:23.445Z,20.45
2023-01-04T05:19:54.508Z,22.75
2023-01-04T05:22:24.246Z,40.85
2023-01-04T05:24:53.207Z,28.10
2023-01-04T05:27:21.501Z,23.73
2023-01-04T05:30:09.013Z,24.35
2023-01-04T05:32:37.431Z,19.92
2023-01-04T05:35:06.267Z,17.98
2023-01-04T05:37:34.605Z,20.38
2023-01-04T05:40:06.604Z,25.45
2023-01-04T05:42:34.918Z,20.67
2023-01-04T05:45:03.657Z,30.10
2023-01-04T05:47:32.060Z,20.45
2023-01-04T05:50:00.832Z,39.10
2023-01-04T05:52:29.325Z,43.35
2023-01-04T05:55:20.692Z,16.20
2023-01-04T05:57:49.008Z,21.80
2023-01-04T06:00:17.743Z,26.67
2023-01-04T06:02:46.315Z,22.30
2023-01-04T06:05:15.864Z,49.83
2023-01-04T06:07:44.319Z,101.88
2023-01-04T06:10:13.817Z,44.17
2023-01-04T06:12:42.924Z,33.63
2023-01-04T06:15:12.063Z,25.40
2023-01-04T06:17:40.493Z,106.97
2023-01-04T06:20:10.219Z,129.80
2023-01-04T06:22:40.845Z,55.55
2023-01-04T06:25:10.354Z,69.57
2023-01-04T06:28:03.171Z,63.15
2023-01-04T06:30:32.086Z,31.98
2023-01-04T06:33:00.536Z,27.45
2023-01-04T06:35:29.178Z,24.83
2023-01-04T06:37:57.601Z,18.42
2023-01-04T06:40:26.263Z,19.55
2023-01-04T06:42:54.740Z,30.73
2023-01-04T06:45:23.493Z,24.25
2023-01-04T06:47:51.854Z,26.13
2023-01-04T06:50:20.602Z,29.23
2023-01-04T06:52:49.216Z,34.38
2023-01-04T06:55:18.027Z,31.30
2023-01-04T07:00:28.981Z,44.65
2023-01-04T07:04:43.423Z,26.52
2023-01-04T07:07:20.776Z,25.17
2023-01-04T07:09:49.180Z,27.58
2023-01-04T07:12:17.802Z,25.05
2023-01-04T07:23:20.679Z,22.17
2023-01-04T07:36:09.445Z,24.77
2023-01-04T07:38:38.376Z,26.60
2023-01-04T07:41:06.712Z,33.75
2023-01-04T07:43:36.895Z,27.98
2023-01-04T07:51:14.997Z,20.65
2023-01-04T07:59:37.466Z,18.33
2023-01-04T08:02:39.435Z,20.25
2023-01-04T08:05:10.586Z,27.70
2023-01-04T08:16:06.195Z,28.05
2023-01-04T08:18:34.524Z,25.33
2023-01-04T08:21:04.451Z,13.68
2023-01-04T08:23:33.235Z,15.07
2023-01-04T08:26:09.165Z,18.50
2023-01-04T08:28:37.898Z,44.75
2023-01-04T08:31:07.986Z,45.30
2023-01-04T08:33:37.205Z,24.48
2023-01-04T08:36:13.977Z,18.45
2023-01-04T08:41:56.621Z,16.92
2023-01-04T08:44:19.864Z,12.75
2023-01-04T08:46:48.997Z,14.98
2023-01-04T08:49:17.374Z,15.23
2023-01-04T08:51:46.213Z,12.07
2023-01-04T08:54:14.611Z,14.43
2023-01-04T08:56:43.375Z,19.15
2023-01-04T08:59:12.977Z,22.92
2023-01-04T09:01:42.116Z,34.40
2023-01-04T09:04:10.795Z,16.45
2023-01-04T09:06:39.789Z,18.27
2023-01-04T09:09:08.186Z,22.33
2023-01-04T09:11:38.447Z,23.55
2023-01-04T09:14:09.631Z,18.95
2023-01-04T09:16:39.021Z,20.40
2023-01-04T09:19:08.614Z,20.67
2023-01-04T09:21:37.470Z,21.48
2023-01-04T09:24:05.804Z,22.75
2023-01-04T09:26:34.498Z,20.05
2023-01-04T09:29:04.081Z,18.63
2023-01-04T09:31:33.005Z,25.92
2023-01-04T09:34:14.114Z,22.63
2023-01-04T09:36:43.769Z,26.48
2023-01-04T09:39:20.892Z,22.02
2023-01-04T09:41:50.880Z,28.23
2023-01-04T09:44:39.653Z,23.98
2023-01-04T09:47:16.833Z,21.95
2023-01-04T09:49:48.416Z,19.63
2023-01-04T09:52:28.714Z,19.98
2023-01-04T09:55:05.044Z,23.70
2023-01-04T09:57:53.149Z,22.58
2023-01-04T10:00:32.588Z,25.27
2023-01-04T10:03:05.732Z,28.13
2023-01-04T10:05:35.232Z,28.15
2023-01-04T10:08:04.302Z,22.63
2023-01-04T10:10:35.675Z,37.20
2023-01-04T10:13:04.335Z,33.97
2023-01-04T10:15:36.789Z,23.52
2023-01-04T10:21:25.275Z,21.98
2023-01-04T10:23:52.829Z,22.13
2023-01-04T10:26:25.648Z,20.55
2023-01-04T10:29:00.524Z,23.75
2023-01-04T10:31:39.808Z,19.98
2023-01-04T10:34:25.656Z,19.88
2023-01-04T10:37:01.482Z,19.08
2023-01-04T10:42:07.847Z,22.40
2023-01-04T10:44:40.420Z,32.17
2023-01-04T10:47:18.498Z,24.15
2023-01-04T10:49:50.115Z,20.00
2023-01-04T10:52:26.133Z,29.05
2023-01-04T10:55:16.767Z,27.45
2023-01-04T10:57:50.751Z,19.13
2023-01-04T11:00:29.918Z,19.98
2023-01-04T11:03:09.592Z,18.77
2023-01-04T11:05:39.172Z,17.63
2023-01-04T11:08:18.176Z,21.17
2023-01-04T11:10:53.676Z,16.85
2023-01-04T11:13:22.266Z,18.05
2023-01-04T11:15:51.219Z,16.55
2023-01-04T11:18:19.910Z,16.70
2023-01-04T11:20:49.269Z,16.00
2023-01-04T11:23:19.407Z,17.10
2023-01-04T11:25:56.923Z,16.25
2023-01-04T11:28:28.315Z,15.77
2023-01-04T11:31:20.192Z,17.35
2023-01-04T11:34:01.965Z,16.52
2023-01-04T11:36:39.432Z,14.45
2023-01-04T11:39:18.442Z,15.45
2023-01-04T11:42:03.485Z,14.82
2023-01-04T11:44:32.880Z,15.50
2023-01-04T11:47:19.953Z,14.73
2023-01-04T11:49:48.696Z,16.98
2023-01-04T11:52:36.988Z,14.35
2023-01-04T11:55:17.063Z,13.38
2023-01-04T11:57:46.055Z,15.57
2023-01-04T12:00:17.678Z,17.58
2023-01-04T12:05:34.667Z,17.70
2023-01-04T12:08:03.379Z,20.80
2023-01-04T12:10:31.695Z,15.48
2023-01-04T12:13:01.389Z,16.48
2023-01-04T12:15:40.321Z,14.45
2023-01-04T12:18:16.477Z,18.15
2023-01-04T12:20:45.061Z,17.63
2023-01-04T12:23:14.224Z,17.30
2023-01-04T12:25:46.084Z,20.17
2023-01-04T12:28:34.068Z,19.20
2023-01-04T12:31:21.927Z,17.38
2023-01-04T12:33:56.365Z,18.10
2023-01-04T12:36:37.143Z,18.38
2023-01-04T12:39:34.786Z,20.63
2023-01-04T12:42:03.901Z,21.45
2023-01-04T12:44:39.102Z,23.15
2023-01-04T12:47:35.414Z,23.17
2023-01-04T12:50:11.835Z,22.70
2023-01-04T12:55:32.893Z,17.08
2023-01-04T12:58:02.657Z,13.68
2023-01-04T13:00:49.461Z,15.40
2023-01-04T13:05:56.632Z,17.50
2023-01-04T13:08:25.452Z,13.47
2023-01-04T13:10:55.570Z,15.57
2023-01-04T13:13:38.547Z,21.92
2023-01-04T13:16:11.609Z,15.05
2023-01-04T13:18:51.592Z,17.10
2023-01-04T13:21:20.215Z,20.40
2023-01-04T13:23:53.229Z,16.05
2023-01-04T13:26:38.368Z,13.85
2023-01-04T13:29:16.111Z,15.55
2023-01-04T13:31:53.987Z,20.08
2023-01-04T13:34:24.001Z,23.70
2023-01-04T13:36:57.172Z,14.07
2023-01-04T13:39:25.558Z,13.10
2023-01-04T13:41:54.850Z,14.18
2023-01-04T13:45:09.219Z,14.27
2023-01-04T13:47:28.794Z,14.77
2023-01-04T13:49:57.267Z,46.05
2023-01-04T13:52:50.635Z,71.47
2023-01-04T13:55:21.134Z,44.03
2023-01-04T13:57:56.949Z,22.52
2023-01-04T14:00:26.225Z,13.32
2023-01-04T14:03:13.812Z,20.30
2023-01-04T14:05:46.715Z,12.20
2023-01-04T14:08:19.611Z,14.23
2023-01-04T14:10:47.947Z,20.73
2023-01-04T14:13:21.027Z,16.63
2023-01-04T14:16:03.258Z,14.30
2023-01-04T14:18:32.967Z,40.30
2023-01-04T14:21:01.318Z,22.38
2023-01-04T14:23:39.076Z,24.15
2023-01-04T14:26:07.401Z,12.95
2023-01-04T14:28:41.734Z,24.52
2023-01-04T14:31:28.039Z,16.80
2023-01-04T14:33:57.809Z,15.73
2023-01-04T14:36:29.625Z,12.13
2023-01-04T14:39:07.881Z,15.52
2023-01-04T14:41:41.635Z,12.43
2023-01-04T14:44:12.378Z,12.70
2023-01-04T14:46:43.581Z,15.70
2023-01-04T14:49:12.357Z,16.05
2023-01-04T14:52:10.123Z,14.32
2023-01-04T14:54:42.349Z,17.08
2023-01-04T14:57:13.167Z,16.02
2023-01-04T14:59:44.195Z,20.58
2023-01-04T15:02:13.237Z,27.88
2023-01-04T15:04:41.898Z,20.00
2023-01-04T15:07:31.942Z,18.58
2023-01-04T15:10:00.940Z,22.02
2023-01-04T15:12:29.429Z,17.63
2023-01-04T15:14:58.627Z,20.58
2023-01-04T15:17:26.979Z,18.25
2023-01-04T15:19:56.108Z,22.60
2023-01-04T15:22:24.422Z,22.25
2023-01-04T15:24:53.628Z,45.65
2023-01-04T15:27:25.677Z,38.90
2023-01-04T15:29:59.268Z,44.58
2023-01-04T15:32:27.672Z,42.42
2023-01-04T15:34:56.434Z,26.13
2023-01-04T15:37:25.719Z,22.77
2023-01-04T15:40:00.117Z,14.55
2023-01-04T15:42:49.546Z,26.90
2023-01-04T15:45:18.255Z,19.40
2023-01-04T15:47:46.672Z,17.58
2023-01-04T15:50:15.999Z,13.85
2023-01-04T15:52:44.543Z,26.67
2023-01-04T15:55:17.763Z,27.35
2023-01-04T15:57:50.228Z,16.33
2023-01-04T16:00:19.596Z,21.63
2023-01-04T16:02:48.330Z,19.90
2023-01-04T16:05:17.299Z,22.10
2023-01-04T16:07:45.590Z,19.55
2023-01-04T16:10:14.348Z,36.30
2023-01-04T16:12:43.304Z,14.57
2023-01-04T16:15:34.961Z,16.38
2023-01-04T16:18:05.648Z,16.48
2023-01-04T16:20:33.995Z,16.73
2023-01-04T16:23:02.677Z,37.42
2023-01-04T16:25:31.797Z,35.83
2023-01-04T16:28:00.608Z,31.25
2023-01-04T16:30:34.102Z,28.15
2023-01-04T16:34:05.728Z,24.98
2023-01-04T16:36:42.395Z,33.88
2023-01-04T16:39:14.143Z,37.90
2023-01-04T16:41:46.900Z,26.77
2023-01-04T16:44:23.542Z,19.77
2023-01-04T16:46:51.806Z,26.13
2023-01-04T16:49:20.871Z,22.08
2023-01-04T16:52:12.584Z,23.25
2023-01-04T16:54:41.373Z,17.48
2023-01-04T16:57:09.939Z,14.43
2023-01-04T16:59:42.619Z,16.48
2023-01-04T17:02:31.974Z,17.05
2023-01-04T17:05:01.225Z,21.20
2023-01-04T17:10:22.865Z,17.20
2023-01-04T17:13:05.191Z,25.05
2023-01-04T17:15:45.184Z,16.42
2023-01-04T17:18:15.321Z,17.73
2023-01-04T17:20:43.949Z,14.60
2023-01-04T17:23:12.320Z,17.00
2023-01-04T17:25:47.269Z,17.27
2023-01-04T17:28:25.300Z,15.20
2023-01-04T17:34:05.100Z,19.23
2023-01-04T17:36:36.170Z,13.10
2023-01-04T17:39:04.780Z,15.30
2023-01-04T17:41:35.055Z,13.63
2023-01-04T17:44:13.116Z,16.02
2023-01-04T17:46:42.366Z,12.52
2023-01-04T17:49:32.126Z,11.98
2023-01-04T17:52:01.100Z,11.68
2023-01-04T17:54:29.391Z,14.00
2023-01-04T17:56:58.387Z,14.95
2023-01-04T17:59:28.104Z,13.00
2023-01-04T18:01:58.937Z,11.18
2023-01-04T18:04:27.297Z,12.52
2023-01-04T18:06:57.744Z,13.02
2023-01-04T18:09:27.283Z,11.88
2023-01-04T18:11:55.909Z,28.45
2023-01-04T18:14:25.022Z,11.30
2023-01-04T18:16:57.389Z,11.52
2023-01-04T18:23:26.069Z,12.85
2023-01-04T18:25:54.437Z,17.15
2023-01-04T18:28:23.808Z,22.65
2023-01-04T18:30:52.672Z,24.65
2023-01-04T18:33:21.012Z,34.22
2023-01-04T18:35:49.736Z,23.02
2023-01-04T18:38:18.087Z,43.33
2023-01-04T18:40:46.976Z,31.65
2023-01-04T18:43:15.441Z,22.70
2023-01-04T18:45:44.776Z,17.85
2023-01-04T18:48:14.657Z,16.40
2023-01-04T18:50:45.228Z,14.50
2023-01-04T18:53:14.195Z,13.20
2023-01-04T18:55:43.217Z,12.27
2023-01-04T18:58:11.944Z,18.45
2023-01-04T19:00:40.754Z,14.13
2023-01-04T19:03:13.341Z,21.38
2023-01-04T19:08:13.722Z,40.17
2023-01-04T19:10:42.653Z,17.23
2023-01-04T19:13:12.600Z,16.63
2023-01-04T19:15:47.852Z,16.67
2023-01-04T19:18:17.206Z,13.18
2023-01-04T19:20:46.794Z,14.32
2023-01-04T19:23:17.777Z,17.17
2023-01-04T19:25:46.971Z,17.42
2023-01-04T19:28:16.421Z,16.55
2023-01-04T19:30:48.523Z,24.15
2023-01-04T19:33:23.104Z,21.10
2023-01-04T19:35:53.852Z,20.95
2023-01-04T19:38:23.221Z,18.17
2023-01-04T19:40:56.905Z,19.52
2023-01-04T19:43:25.431Z,21.27
2023-01-04T19:45:54.286Z,16.00
2023-01-04T19:48:23.910Z,22.17
2023-01-04T19:51:08.769Z,20.58
2023-01-04T19:53:42.055Z,23.52
2023-01-04T19:56:11.580Z,24.35
2023-01-04T19:58:40.513Z,21.40
2023-01-04T20:01:13.437Z,49.22
2023-01-04T20:03:42.575Z,25.67
2023-01-04T20:06:12.133Z,19.10
2023-01-04T20:08:41.273Z,15.90
2023-01-04T20:11:09.950Z,17.25
2023-01-04T20:13:38.918Z,17.38
2023-01-04T20:16:08.274Z,17.20
2023-01-04T20:18:37.474Z,16.92
2023-01-04T20:21:13.485Z,16.90
2023-01-04T20:23:42.282Z,16.92
2023-01-04T20:26:13.521Z,15.55
2023-01-04T20:28:44.250Z,16.65
2023-01-04T20:31:14.336Z,24.85
2023-01-04T20:33:42.992Z,19.33
2023-01-04T20:36:19.075Z,18.95
2023-01-04T20:38:48.434Z,16.15
2023-01-04T20:41:19.193Z,19.30
2023-01-04T20:43:48.163Z,19.30
2023-01-04T20:46:23.427Z,18.65
2023-01-04T20:48:53.464Z,18.13
2023-01-04T20:51:24.263Z,17.70
2023-01-04T20:53:52.922Z,18.05
2023-01-04T20:56:23.738Z,18.98
2023-01-04T20:58:53.447Z,17.33
2023-01-04T21:01:22.948Z,22.02
2023-01-04T21:03:51.383Z,17.05
2023-01-04T21:06:20.216Z,25.80
2023-01-04T21:08:50.450Z,20.30
2023-01-04T21:11:20.660Z,17.90
2023-01-04T21:13:50.377Z,21.70
2023-01-04T21:16:19.172Z,17.67
2023-01-04T21:18:47.620Z,16.30
2023-01-04T21:21:17.204Z,17.73
2023-01-04T21:23:45.919Z,18.83
2023-01-04T21:26:16.242Z,18.73
2023-01-04T21:28:45.153Z,16.40
2023-01-04T21:31:16.742Z,19.52
2023-01-04T21:33:46.372Z,17.23
2023-01-04T21:36:20.837Z,18.42
2023-01-04T21:38:50.277Z,15.95
2023-01-04T21:41:25.451Z,16.50
2023-01-04T21:43:54.941Z,16.70
2023-01-04T21:46:23.972Z,15.40
2023-01-04T21:49:00.201Z,15.10
2023-01-04T21:51:29.794Z,19.10
2023-01-04T21:53:59.273Z,15.05
2023-01-04T21:56:34.159Z,16.30
2023-01-04T21:59:03.571Z,17.25
2023-01-04T22:01:35.148Z,16.63
2023-01-04T22:04:04.512Z,14.18
2023-01-04T22:06:34.227Z,14.00
2023-01-04T22:09:02.576Z,19.77
2023-01-04T22:11:31.183Z,19.67
2023-01-04T22:13:59.521Z,12.05
2023-01-04T22:16:29.644Z,10.88
2023-01-04T22:18:58.180Z,11.00
2023-01-04T22:21:27.671Z,10.60
2023-01-04T22:23:56.370Z,11.63
2023-01-04T22:26:25.347Z,12.23
2023-01-04T22:28:54.576Z,10.95
2023-01-04T22:31:23.242Z,15.52
2023-01-04T22:33:51.568Z,10.82
2023-01-04T22:36:23.359Z,10.65
2023-01-04T22:38:53.028Z,9.63
2023-01-04T22:41:22.531Z,19.63
2023-01-04T22:44:04.430Z,14.00
2023-01-04T22:46:33.987Z,14.75
2023-01-04T22:49:02.405Z,11.60
2023-01-04T22:51:32.079Z,12.40
2023-01-04T22:54:02.424Z,14.35
2023-01-04T22:56:50.537Z,25.23
2023-01-04T22:59:21.658Z,14.55
2023-01-04T23:01:50.382Z,14.27
2023-01-04T23:04:18.755Z,17.48
2023-01-04T23:06:55.487Z,11.98
2023-01-04T23:10:34.107Z,16.00
2023-01-04T23:13:02.700Z,12.85
2023-01-04T23:15:32.762Z,15.77
2023-01-04T23:18:05.820Z,15.90
2023-01-04T23:20:34.490Z,14.80
2023-01-04T23:23:09.799Z,13.40
2023-01-04T23:25:47.313Z,16.30
2023-01-04T23:28:18.032Z,14.38
2023-01-04T23:30:46.513Z,12.65
2023-01-04T23:33:15.351Z,16.55
2023-01-04T23:35:43.766Z,13.80
2023-01-04T23:38:14.060Z,13.43
2023-01-04T23:40:48.211Z,14.40
2023-01-04T23:43:34.812Z,11.13
2023-01-04T23:46:07.228Z,12.48
2023-01-04T23:48:36.175Z,15.38
2023-01-04T23:51:04.875Z,11.13
2023-01-04T23:53:33.615Z,16.17
2023-01-04T23:56:03.844Z,11.73
2023-01-04T23:58:38.605Z,12.70
